Logo AVAMET
Benvolgut visitant, si us plau, ingressa Recuperar contrasenya

Alcalalí centre

Dades diàries. Acumulats / Últims 30 dies disponibles

Data Temperatura (°C) Humitat rel. (%) Pressió rel. (hPa) Vent (km/h) Precipitació
Mínima Mitjana Màxima Amplitud
tèrmica
Mínima Mitjana Màxima Mínima Mitjana Màxima Predom. Mitjana Ràfega
màxima
Total
(mm)
Índex-n
Mínima Mitjana Màxima Mínima Mitjana Màxima n
0 a 1
P0 max
mm 5'
Dades mensuals acumulades fins l'últim dia disponible
05/2019 8,4 12,7 20,3 17,9 18,6 22,6 28,8 20,4 23 66 94 1.002 1.015 1.025   6,7 64,4 12,2
Dades anuals acumulades fins l'últim dia disponible
2019 1,1 8,6 20,3 13,3 10,3 18,2 28,8 27,7 15 63 97 999 1.019 1.036   6,5 78,9 435,0
Últims 30 dies disponibles
23-05-2019 13,8     21,4     27,0 13,2 23 43 81 1.014 1.017 1.019 SSO 7,5 40,2 0,0
22-05-2019 11,9     18,9     24,9 13,0 32 65 92 1.017 1.018 1.019 ENE 5,5 46,7 0,0
21-05-2019 12,4     16,9     22,0 9,6 58 77 89 1.014 1.016 1.018 WNW 3,7 33,8 0,8
20-05-2019 11,3     16,7     20,7 9,4 40 64 79 1.012 1.013 1.014 E 7,2 32,2 0,0
19-05-2019 10,1     16,3     21,1 11,0 46 69 89 1.010 1.011 1.013 WNW 5,3 30,6 0,0
18-05-2019 12,4     15,6     18,8 6,4 45 63 83 1.008 1.009 1.011 WNW 2,9 19,3 7,6
17-05-2019 14,0     18,5     23,2 9,2 32 53 87 1.002 1.006 1.010 OSO 10,8 64,4 0,0
16-05-2019 15,1     18,0     22,2 7,1 51 73 87 1.005 1.011 1.016 SSW 8,0 43,5 0,0
15-05-2019 11,4     18,0     23,7 12,3 43 68 85 1.011 1.012 1.015 NNE 6,3 30,6 0,0
14-05-2019 9,3     17,2     22,7 13,4 35 47 86 1.014 1.017 1.022 SSW 7,6 43,5 0,0
13-05-2019 12,7     17,2     21,4 8,7 58 76 93 1.019 1.021 1.022 ENE 7,7 29,0 0,0
12-05-2019 13,6     17,9     22,7 9,1 56 73 89 1.020 1.023 1.025 ENE 5,8 32,2 0,0
11-05-2019 17,4     21,6     24,7 7,3 43 60 75 1.015 1.018 1.024 WNW 8,2 30,6 0,0
10-05-2019 20,3     24,3     28,6 8,3 37 53 65 1.012 1.013 1.015 WNW 8,4 37,0 0,0
09-05-2019 20,0     22,5     26,2 6,2 44 55 66 1.011 1.013 1.014 WNW 9,5 40,2 0,0
08-05-2019 11,8     21,4     28,8 17,0 32 61 94 1.010 1.012 1.015 WNW 6,6 40,2 0,0
07-05-2019 13,5     17,8     22,2 8,7 57 79 94 1.014 1.017 1.020 ENE 5,6 33,8 0,0
06-05-2019 9,1     14,8     21,1 12,0 64 81 92 1.017 1.018 1.020 WNW 5,0 35,4 0,0
05-05-2019 10,1     14,9     19,6 9,5 43 67 88 1.012 1.015 1.017 WNW 6,8 33,8 0,0
04-05-2019 8,4     14,2     18,6 10,2 54 71 92 1.011 1.013 1.014 WNW 7,9 45,1 0,0
03-05-2019 9,8     13,4     19,1 9,3 55 79 92 1.010 1.013 1.015 WNW 6,3 32,2 3,8 0,20
02-05-2019 11,9     15,3     18,8 6,9 56 74 89 1.015 1.015 1.017 WNW 4,5 25,7 0,0
30-04-2019 10,8     15,9     20,3 9,5 60 79 94 1.016 1.017 1.019 E 6,0 32,2 5,0
29-04-2019 9,6     14,4     18,4 8,8 68 79 88 1.017 1.019 1.021 WNW 7,7 32,2 0,0
28-04-2019 10,1     16,4     22,8 12,7 37 61 87 1.019 1.022 1.025 WNW 4,8 37,0 0,0
27-04-2019 11,7     16,8     22,1 10,4 39 54 83 1.024 1.025 1.027 WNW 6,3 37,0 0,0
26-04-2019 12,1     16,4     20,2 8,1 33 48 62 1.018 1.022 1.025 WNW 8,9 38,6 0,0
25-04-2019 14,4     17,7     21,1 6,7 43 58 76 1.010 1.012 1.018 SSW 13,4 48,3 0,0
24-04-2019 9,9     14,3     17,7 7,8 42 57 79 1.005 1.009 1.012 SSW 11,4 51,5 0,0
23-04-2019 9,2     14,3     20,8 11,6 53 77 95 999 1.000 1.005 SSW 6,1 48,3 1,8
Últims 13 mesos disponibles
04/2019 7,2 10,7 14,4 14,5 13,1 18,5 27,3 20,1 36 69 95 1.000 1.013 1.025 WNW 7,7 64,4 340,6
03/2019 5,2 8,2 13,0 13,6 12,3 18,6 26,8 21,6 33 59 91 1.010 1.023 1.030 WNW 5,8 61,2 76,2
02/2019 2,6 6,1 10,6 11,3 11,6 16,7 22,4 19,8 38 65 83 1.021 1.027 1.034 WNW 6,2 74,0 0,0
01/2019 1,1 6,0 13,3 10,4 10,3 15,5 18,9 17,8 37 60 80 1.004 1.019 1.031 WNW 6,2 78,9 6,0
12/2018 3,6 7,5 10,7 12,4 11,6 18,1 23,8 20,2 51 69 91 1.009 1.025 1.031 WNW 3,7 66,0 34,2
11/2018 5,0 10,4 15,9 14,1 13,1 17,9 23,1 18,1 47 72 93 1.001 1.015 1.023 WNW 5,1 69,2 199,2
10/2018 8,0 13,8 18,8 18,1 13,4 22,5 27,5 19,5 42 71 88 1.000 1.015 1.026 4,5 57,9 130,4
09/2018 12,7 19,2 22,3 23,4 23,3 27,4 31,7 19,0 58 76 88 1.012 1.020 1.028 4,9 43,5 73,0
08/2018 18,4 21,5 25,0 26,3 24,3 30,8 35,9 17,5 41 65 81 1.012 1.016 1.021 6,5 41,8 16,6
07/2018 17,9 20,8 24,9 25,9 24,1 30,6 34,5 16,6 7,0 51,5 0,0
06/2018 13,9 17,3 21,2 22,5 22,5 27,1 31,1 17,2 6,9 46,7 64,2
05/2018 6,6 12,6 17,3 17,9 16,2 22,9 27,4 20,8 6,3 49,9 11,6
04/2018 7,2 11,0 15,1 15,4 12,9 19,7 25,7 18,5 7,4 77,2 20,8
Tots els anys disponibles
2018 1,3 13,3 25,0 17,8 6,9 22,3 35,9 34,6 41 70 93 1.000 1.018 1.031 WNW 6,3 88,5 756,0
2017 0,2 12,7 26,0 17,5 7,2 22,4 36,6 36,4 6,3 96,6 784,6
Temperatura (°C)
Humitat relativa (%)
Velocitat del vent i ràfega màxima (km/h)
Direcció del vent (°)
Pressió (hPa)
Precipitació (mm)
Nota sobre les dades: s'avisa a l'usuari de la provisionalitat i no oficialitat d'aquestes dades
Logo AVAMET blanc
Web allotjada a Sollutia
Llicència de Creative CommonsLa web d'AVAMET i els seus continguts estan subjectes a una llicència de
Reconeixement - No Comercial - Compartir igual
Properes estacions: Altea - Club Nàutic d'Altea (Soci), Ontinyent - El Pilar (Soci), Ares del Maestrat (Ajuntament Soci), Catadau - L'Altet (Inforatge)     - - - - -      Últimes estacions: Jacarilla - centro (MeteOrihuela), Elx - Maitino/Vallverda/Velarde/Matola/Ferriol (Soci TiempoElche.com), Orihuela - Playa Flamenca (MeteOrihuela), Puçol - Ciutat Jardí (Soci), Alzira - La Casella (Soci) - - -